Time;durP1;ratioP1;P1;durP2;ratioP2;P2;SDS_P1;SDS_P2;PMS_P1;PMS_P2;Temp;Humidity;BMP_temperature;BMP_pressure;BME280_temperature;BME280_humidity;BME280_pressure;Samples;Min_cycle;Max_cycle;Signal;HPM_P1;HPM_P2
2022/10/22 00:01:37;;;;;;;;;;;15.50;99.90;;;;;;5056603;28;19912;-73
2022/10/22 00:04:03;;;;;;;;;;;15.60;99.90;;;;;;5056310;28;19905;-73
2022/10/22 00:06:29;;;;;;;;;;;15.50;99.90;;;;;;5056298;28;19911;-74
2022/10/22 00:08:54;;;;;;;;;;;15.50;99.90;;;;;;5056192;28;20024;-73
2022/10/22 00:11:20;;;;;;;;;;;15.50;99.90;;;;;;5056206;28;19910;-75
2022/10/22 00:13:46;;;;;;;;;;;15.40;99.90;;;;;;5056432;28;20356;-73
2022/10/22 00:16:11;;;;;;;;;;;15.40;99.90;;;;;;5055974;28;20395;-74
2022/10/22 00:18:37;;;;;;;;;;;15.40;99.90;;;;;;5055969;28;20276;-74
2022/10/22 00:21:04;;;;;;;;;;;15.40;99.90;;;;;;5055981;28;19916;-73
2022/10/22 00:23:29;;;;;;;;;;;15.30;99.90;;;;;;5056480;28;20365;-75
2022/10/22 00:25:55;;;;;;;;;;;15.30;99.90;;;;;;5056184;28;19989;-74
2022/10/22 00:28:22;;;;;;;;;;;15.30;99.90;;;;;;5055874;28;20287;-75
2022/10/22 00:30:47;;;;;;;;;;;15.20;99.90;;;;;;5055805;28;19904;-74
2022/10/22 00:33:13;;;;;;;;;;;15.20;99.90;;;;;;5055642;28;19916;-75
2022/10/22 00:35:38;;;;;;;;;;;15.10;99.90;;;;;;5055702;28;19917;-74
2022/10/22 00:38:04;;;;;;;;;;;15.10;99.90;;;;;;5055597;28;19905;-73
2022/10/22 00:40:29;;;;;;;;;;;15.10;99.90;;;;;;5055939;28;20004;-73
2022/10/22 00:42:55;;;;;;;;;;;15.10;99.90;;;;;;5055603;28;19911;-74
2022/10/22 00:45:24;;;;;;;;;;;15.00;99.90;;;;;;5055817;28;19944;-73
2022/10/22 00:47:53;;;;;;;;;;;15.00;99.90;;;;;;5055387;28;19912;-73
2022/10/22 00:50:31;;;;;;;;;;;15.00;99.90;;;;;;5055764;28;19939;-73
2022/10/22 00:52:57;;;;;;;;;;;15.00;99.90;;;;;;5055449;28;19950;-74
2022/10/22 00:55:23;;;;;;;;;;;15.00;99.90;;;;;;5054441;28;19904;-73
2022/10/22 00:57:49;;;;;;;;;;;15.00;99.90;;;;;;5055288;28;19954;-75
2022/10/22 01:00:15;;;;;;;;;;;15.00;99.90;;;;;;5037262;28;20003;-73
2022/10/22 01:02:41;;;;;;;;;;;15.00;99.90;;;;;;5055722;28;19908;-73
2022/10/22 01:05:06;;;;;;;;;;;15.00;99.90;;;;;;5055123;28;20054;-74
2022/10/22 01:07:34;;;;;;;;;;;15.00;99.90;;;;;;5055698;28;19940;-73
2022/10/22 01:10:22;;;;;;;;;;;15.00;99.90;;;;;;5055050;28;19905;-73
2022/10/22 01:13:04;;;;;;;;;;;15.00;99.90;;;;;;5055075;28;19983;-74
2022/10/22 01:15:48;;;;;;;;;;;15.00;99.90;;;;;;5055333;28;20277;-74
2022/10/22 01:18:20;;;;;;;;;;;15.00;99.90;;;;;;5055071;28;19916;-74
2022/10/22 01:20:51;;;;;;;;;;;15.00;99.90;;;;;;5055181;28;19966;-75
2022/10/22 01:23:31;;;;;;;;;;;15.00;99.90;;;;;;5055619;28;19911;-74
2022/10/22 01:25:57;;;;;;;;;;;15.00;99.90;;;;;;5055084;28;20051;-74
2022/10/22 01:28:33;;;;;;;;;;;15.00;99.90;;;;;;5054742;28;19940;-72
2022/10/22 01:30:59;;;;;;;;;;;14.90;99.90;;;;;;5054955;28;19905;-75
2022/10/22 01:33:25;;;;;;;;;;;14.90;99.90;;;;;;5054818;28;19955;-74
2022/10/22 01:35:51;;;;;;;;;;;14.90;99.90;;;;;;5054707;28;19917;-73
2022/10/22 01:38:19;;;;;;;;;;;14.90;99.90;;;;;;5054468;28;19944;-73
2022/10/22 01:40:45;;;;;;;;;;;14.90;99.90;;;;;;5054445;28;19905;-73
2022/10/22 01:43:10;;;;;;;;;;;14.90;99.90;;;;;;5054974;28;19915;-73
2022/10/22 01:45:42;;;;;;;;;;;15.00;99.90;;;;;;5054646;28;19936;-75
2022/10/22 01:48:23;;;;;;;;;;;15.00;99.90;;;;;;5036220;28;19948;-74
2022/10/22 01:50:51;;;;;;;;;;;14.80;99.90;;;;;;5054367;28;19912;-74
2022/10/22 01:53:16;;;;;;;;;;;14.80;99.90;;;;;;5054578;28;19909;-74
2022/10/22 01:55:48;;;;;;;;;;;14.80;99.90;;;;;;5054189;28;19905;-73
2022/10/22 01:58:28;;;;;;;;;;;14.80;99.90;;;;;;5054098;28;19955;-75
2022/10/22 02:00:59;;;;;;;;;;;14.80;99.90;;;;;;5054435;28;19905;-73
2022/10/22 02:03:29;;;;;;;;;;;14.70;99.90;;;;;;5054049;28;20372;-73
2022/10/22 02:05:58;;;;;;;;;;;14.70;99.90;;;;;;5035979;28;20292;-74
2022/10/22 02:08:26;;;;;;;;;;;14.60;99.90;;;;;;5054028;28;19905;-74
2022/10/22 02:10:52;;;;;;;;;;;14.70;99.90;;;;;;5054225;28;19950;-74
2022/10/22 02:13:23;;;;;;;;;;;14.70;99.90;;;;;;5053919;28;19905;-74
2022/10/22 02:15:50;;;;;;;;;;;14.70;99.90;;;;;;5053877;28;20356;-75
2022/10/22 02:18:18;;;;;;;;;;;14.70;99.90;;;;;;5054069;28;20316;-73
2022/10/22 02:20:43;;;;;;;;;;;14.80;99.90;;;;;;5053770;28;19905;-74
2022/10/22 02:23:10;;;;;;;;;;;14.80;99.90;;;;;;5054349;28;19895;-74
2022/10/22 02:25:37;;;;;;;;;;;14.80;99.90;;;;;;5054038;28;19928;-74
2022/10/22 02:28:11;;;;;;;;;;;14.80;99.90;;;;;;5054031;28;19954;-74
2022/10/22 02:30:39;;;;;;;;;;;14.80;99.90;;;;;;5054350;28;19970;-73
2022/10/22 02:33:10;;;;;;;;;;;14.70;99.90;;;;;;5035636;28;19908;-75
2022/10/22 02:35:37;;;;;;;;;;;14.70;99.90;;;;;;5053468;28;19913;-74
2022/10/22 02:38:03;;;;;;;;;;;14.70;99.90;;;;;;5054155;28;19904;-74
2022/10/22 02:40:30;;;;;;;;;;;14.70;99.90;;;;;;5053565;28;19962;-75
2022/10/22 02:42:55;;;;;;;;;;;14.70;99.90;;;;;;5035806;28;19924;-75
2022/10/22 02:45:21;;;;;;;;;;;14.70;99.90;;;;;;5053547;28;19905;-75
2022/10/22 02:47:47;;;;;;;;;;;14.80;99.90;;;;;;5054039;28;19905;-73
2022/10/22 02:50:12;;;;;;;;;;;14.70;99.90;;;;;;5053512;28;19904;-73
2022/10/22 02:52:38;;;;;;;;;;;14.70;99.90;;;;;;5054067;28;19911;-75
2022/10/22 02:55:04;;;;;;;;;;;14.80;99.90;;;;;;5053734;28;19905;-73
2022/10/22 02:57:29;;;;;;;;;;;14.70;99.90;;;;;;5053689;28;20317;-73
2022/10/22 02:59:55;;;;;;;;;;;14.70;99.90;;;;;;5053613;28;20014;-74
2022/10/22 03:02:20;;;;;;;;;;;14.70;99.90;;;;;;5053675;28;19908;-75
2022/10/22 03:04:46;;;;;;;;;;;14.80;99.90;;;;;;5053362;28;19911;-74
2022/10/22 03:07:11;;;;;;;;;;;14.80;99.90;;;;;;5053643;28;19994;-74
2022/10/22 03:09:37;;;;;;;;;;;14.80;99.90;;;;;;5053331;28;19958;-75
2022/10/22 03:12:02;;;;;;;;;;;14.80;99.90;;;;;;5053562;28;19904;-74
2022/10/22 03:14:28;;;;;;;;;;;14.90;99.90;;;;;;5053530;28;19950;-74
2022/10/22 03:16:53;;;;;;;;;;;14.90;99.90;;;;;;5053230;28;20327;-73
2022/10/22 03:19:19;;;;;;;;;;;14.90;99.90;;;;;;5055460;28;19908;-75
2022/10/22 03:21:47;;;;;;;;;;;14.90;99.90;;;;;;5057433;28;19995;-73
2022/10/22 03:24:18;;;;;;;;;;;14.90;99.90;;;;;;5057582;28;19905;-75
2022/10/22 03:26:44;;;;;;;;;;;14.90;99.90;;;;;;5057028;28;20001;-74
2022/10/22 03:29:11;;;;;;;;;;;14.90;99.90;;;;;;5056974;28;19905;-73
2022/10/22 03:31:37;;;;;;;;;;;14.90;99.90;;;;;;5056941;28;19905;-73
2022/10/22 03:34:02;;;;;;;;;;;14.90;99.90;;;;;;5056849;28;19911;-73
2022/10/22 03:36:28;;;;;;;;;;;14.90;99.90;;;;;;5056668;28;19919;-73
2022/10/22 03:38:53;;;;;;;;;;;14.90;99.90;;;;;;5057061;28;19919;-75
2022/10/22 03:41:19;;;;;;;;;;;14.90;99.90;;;;;;5056817;28;19999;-73
2022/10/22 03:43:48;;;;;;;;;;;14.90;99.90;;;;;;5056975;28;20280;-73
2022/10/22 03:46:14;;;;;;;;;;;14.90;99.90;;;;;;5038757;28;19904;-75
2022/10/22 03:48:40;;;;;;;;;;;14.90;99.90;;;;;;5056587;28;20325;-74
2022/10/22 03:51:05;;;;;;;;;;;14.90;99.90;;;;;;5056593;28;19911;-74
2022/10/22 03:53:31;;;;;;;;;;;14.90;99.90;;;;;;5056790;28;19911;-74
2022/10/22 03:55:56;;;;;;;;;;;14.90;99.90;;;;;;5056343;28;20269;-74
2022/10/22 03:58:22;;;;;;;;;;;14.90;99.90;;;;;;5056402;28;19905;-74
2022/10/22 04:00:47;;;;;;;;;;;14.90;99.90;;;;;;5056353;28;19904;-74
2022/10/22 04:03:13;;;;;;;;;;;14.90;99.90;;;;;;5056356;28;19961;-74
2022/10/22 04:05:38;;;;;;;;;;;15.00;99.90;;;;;;5056211;28;19905;-73
2022/10/22 04:08:04;;;;;;;;;;;14.90;99.90;;;;;;5056275;28;19904;-73
2022/10/22 04:10:29;;;;;;;;;;;14.90;99.90;;;;;;5056488;28;19904;-73
2022/10/22 04:12:55;;;;;;;;;;;14.90;99.90;;;;;;5056202;28;19905;-75
2022/10/22 04:15:20;;;;;;;;;;;14.90;99.90;;;;;;5056117;28;19909;-74
2022/10/22 04:17:46;;;;;;;;;;;15.00;99.90;;;;;;5056359;28;19974;-74
2022/10/22 04:20:11;;;;;;;;;;;14.90;99.90;;;;;;5038064;28;19908;-74
2022/10/22 04:22:37;;;;;;;;;;;15.00;99.90;;;;;;5056047;28;20273;-75
2022/10/22 04:25:03;;;;;;;;;;;15.00;99.90;;;;;;5056220;28;19940;-73
2022/10/22 04:27:30;;;;;;;;;;;15.00;99.90;;;;;;5055917;28;20364;-74
2022/10/22 04:29:55;;;;;;;;;;;15.00;99.90;;;;;;5054566;28;19940;-74
2022/10/22 04:32:21;;;;;;;;;;;14.90;99.90;;;;;;5055771;28;19959;-73
2022/10/22 04:34:46;;;;;;;;;;;14.80;99.90;;;;;;5055763;28;19995;-73
2022/10/22 04:37:12;;;;;;;;;;;14.70;99.90;;;;;;5055313;28;19943;-74
2022/10/22 04:39:37;;;;;;;;;;;14.80;99.90;;;;;;5056182;28;19912;-75
2022/10/22 04:42:03;;;;;;;;;;;14.80;99.90;;;;;;5055641;28;19909;-73
2022/10/22 04:44:28;;;;;;;;;;;14.80;99.90;;;;;;5037681;28;20276;-75
2022/10/22 04:46:54;;;;;;;;;;;14.80;99.90;;;;;;5055815;28;19904;-73
2022/10/22 04:49:19;;;;;;;;;;;14.80;99.90;;;;;;5055535;28;19905;-73
2022/10/22 04:51:45;;;;;;;;;;;14.80;99.90;;;;;;5055455;28;19912;-73
2022/10/22 04:54:10;;;;;;;;;;;14.90;99.90;;;;;;5055397;28;20399;-72
2022/10/22 04:56:36;;;;;;;;;;;14.90;99.90;;;;;;5055617;28;19999;-73
2022/10/22 04:59:04;;;;;;;;;;;14.90;99.90;;;;;;5055523;28;19915;-74
2022/10/22 05:01:33;;;;;;;;;;;14.90;99.90;;;;;;5055162;28;19908;-74
2022/10/22 05:04:00;;;;;;;;;;;14.90;99.90;;;;;;5055217;28;19963;-74
2022/10/22 05:06:27;;;;;;;;;;;14.90;99.90;;;;;;5055158;28;20257;-74
2022/10/22 05:08:54;;;;;;;;;;;14.90;99.90;;;;;;5055600;28;19905;-73
2022/10/22 05:11:20;;;;;;;;;;;15.00;99.90;;;;;;5054790;28;19904;-74
2022/10/22 05:13:46;;;;;;;;;;;15.10;99.90;;;;;;5054922;28;20383;-75
2022/10/22 05:16:12;;;;;;;;;;;15.10;99.90;;;;;;5055251;28;20003;-73
2022/10/22 05:18:39;;;;;;;;;;;15.00;99.90;;;;;;5054847;28;19909;-74
2022/10/22 05:21:07;;;;;;;;;;;14.90;99.90;;;;;;5055189;28;20418;-74
2022/10/22 05:23:32;;;;;;;;;;;14.90;99.90;;;;;;5055341;28;20365;-73
2022/10/22 05:26:01;;;;;;;;;;;14.90;99.90;;;;;;5054784;28;19957;-75
2022/10/22 05:28:27;;;;;;;;;;;14.90;99.90;;;;;;5055020;28;19905;-74
2022/10/22 05:30:53;;;;;;;;;;;15.00;99.90;;;;;;5054677;28;19912;-74
2022/10/22 05:33:21;;;;;;;;;;;15.00;99.90;;;;;;5054870;28;19905;-72
2022/10/22 05:35:47;;;;;;;;;;;15.00;99.90;;;;;;5054457;28;19913;-73
2022/10/22 05:38:12;;;;;;;;;;;15.10;99.90;;;;;;5054480;28;19940;-75
2022/10/22 05:40:38;;;;;;;;;;;15.10;99.90;;;;;;5054967;28;19993;-74
2022/10/22 05:43:03;;;;;;;;;;;15.10;99.90;;;;;;5054159;28;19904;-73
2022/10/22 05:45:29;;;;;;;;;;;15.10;99.90;;;;;;5054737;28;19905;-74
2022/10/22 05:47:54;;;;;;;;;;;15.10;99.90;;;;;;5054399;28;19904;-73
2022/10/22 05:50:20;;;;;;;;;;;15.10;99.90;;;;;;5036483;28;19958;-73
2022/10/22 05:52:45;;;;;;;;;;;15.00;99.90;;;;;;5054593;28;19912;-73
2022/10/22 05:55:11;;;;;;;;;;;15.00;99.90;;;;;;5054495;28;19915;-74
2022/10/22 05:57:38;;;;;;;;;;;15.00;99.90;;;;;;5054263;28;19940;-72
2022/10/22 06:00:03;;;;;;;;;;;15.00;99.90;;;;;;5053722;28;20387;-74
2022/10/22 06:02:29;;;;;;;;;;;15.00;99.90;;;;;;5054678;28;19912;-73
2022/10/22 06:04:54;;;;;;;;;;;14.90;99.90;;;;;;5054361;28;20387;-74
2022/10/22 06:07:20;;;;;;;;;;;14.90;99.90;;;;;;5054280;28;20027;-74
2022/10/22 06:09:49;;;;;;;;;;;14.90;99.90;;;;;;5053988;28;19905;-73
2022/10/22 06:12:14;;;;;;;;;;;14.90;99.90;;;;;;5036104;28;20288;-73
2022/10/22 06:14:40;;;;;;;;;;;14.90;99.90;;;;;;5054229;28;19904;-74
2022/10/22 06:17:05;;;;;;;;;;;14.90;99.90;;;;;;5053884;28;19905;-74
2022/10/22 06:19:31;;;;;;;;;;;14.90;99.90;;;;;;5053794;28;20356;-74
2022/10/22 06:21:56;;;;;;;;;;;14.80;99.90;;;;;;5053819;28;19905;-73
2022/10/22 06:24:22;;;;;;;;;;;14.80;99.90;;;;;;5036421;28;19905;-73
2022/10/22 06:26:51;;;;;;;;;;;14.80;99.90;;;;;;5054021;28;19911;-74
2022/10/22 06:29:16;;;;;;;;;;;14.90;99.90;;;;;;5053730;28;19908;-74
2022/10/22 06:31:42;;;;;;;;;;;14.80;99.90;;;;;;5053960;28;19905;-73
2022/10/22 06:34:10;;;;;;;;;;;14.80;99.90;;;;;;5053578;28;20288;-74
2022/10/22 06:36:35;;;;;;;;;;;14.90;99.90;;;;;;5053481;28;19965;-73
2022/10/22 06:39:01;;;;;;;;;;;14.90;99.90;;;;;;5053810;28;19916;-73
2022/10/22 06:41:27;;;;;;;;;;;14.90;99.90;;;;;;5053562;28;19995;-75
2022/10/22 06:43:53;;;;;;;;;;;14.90;99.90;;;;;;5053599;28;20357;-75
2022/10/22 06:46:19;;;;;;;;;;;15.00;99.90;;;;;;5035513;28;19904;-73
2022/10/22 06:48:49;;;;;;;;;;;14.90;99.90;;;;;;5054076;28;19904;-73
2022/10/22 06:51:14;;;;;;;;;;;15.00;99.90;;;;;;5053471;28;20324;-73
2022/10/22 06:53:40;;;;;;;;;;;15.00;99.90;;;;;;5054783;28;19905;-74
2022/10/22 06:56:09;;;;;;;;;;;15.00;99.90;;;;;;5058144;28;19905;-74
2022/10/22 06:58:35;;;;;;;;;;;15.00;99.90;;;;;;5057480;28;19958;-74
2022/10/22 07:01:05;;;;;;;;;;;15.10;99.90;;;;;;5057814;28;19908;-75
2022/10/22 07:03:31;;;;;;;;;;;15.10;99.90;;;;;;5057449;28;19924;-73
2022/10/22 07:06:00;;;;;;;;;;;15.20;99.90;;;;;;5057490;28;20386;-74
2022/10/22 07:08:25;;;;;;;;;;;15.20;99.90;;;;;;5057698;28;19947;-75
2022/10/22 07:10:51;;;;;;;;;;;15.20;99.90;;;;;;5057377;28;20416;-73
2022/10/22 07:13:16;;;;;;;;;;;15.20;99.90;;;;;;5057300;28;20383;-74
2022/10/22 07:15:42;;;;;;;;;;;15.30;99.90;;;;;;5057271;28;19999;-74
2022/10/22 07:18:07;;;;;;;;;;;15.30;99.90;;;;;;5057834;28;20002;-73
2022/10/22 07:20:33;;;;;;;;;;;15.30;99.90;;;;;;5057126;28;19908;-74
2022/10/22 07:22:58;;;;;;;;;;;15.40;99.90;;;;;;5057418;28;19905;-73
2022/10/22 07:25:24;;;;;;;;;;;15.40;99.90;;;;;;5057576;28;19904;-75
2022/10/22 07:27:51;;;;;;;;;;;15.30;99.90;;;;;;5057606;28;20000;-74
2022/10/22 07:30:16;;;;;;;;;;;15.30;99.90;;;;;;5056979;28;20347;-73
2022/10/22 07:32:42;;;;;;;;;;;15.40;99.90;;;;;;5057121;28;19911;-74
2022/10/22 07:35:08;;;;;;;;;;;15.40;99.90;;;;;;5056767;28;19911;-74
2022/10/22 07:37:33;;;;;;;;;;;15.40;99.90;;;;;;5057481;28;19911;-75
2022/10/22 07:39:59;;;;;;;;;;;15.40;99.90;;;;;;5056774;28;20386;-73
2022/10/22 07:42:24;;;;;;;;;;;15.50;99.90;;;;;;5038911;28;20426;-73
2022/10/22 07:44:50;;;;;;;;;;;15.60;99.90;;;;;;5057286;28;19920;-75
2022/10/22 07:47:15;;;;;;;;;;;15.60;99.90;;;;;;5038811;28;19904;-75
2022/10/22 07:49:41;;;;;;;;;;;15.60;99.90;;;;;;5056628;28;19909;-74
2022/10/22 07:52:06;;;;;;;;;;;15.70;99.90;;;;;;5056846;28;19904;-74
2022/10/22 07:54:32;;;;;;;;;;;15.80;99.90;;;;;;5056537;28;19994;-74
2022/10/22 07:56:57;;;;;;;;;;;15.90;99.90;;;;;;5038519;28;20383;-75
2022/10/22 07:59:23;;;;;;;;;;;15.90;99.90;;;;;;5057009;28;19915;-74
2022/10/22 08:01:48;;;;;;;;;;;16.00;99.90;;;;;;5056397;28;19911;-73
2022/10/22 08:04:14;;;;;;;;;;;16.00;99.90;;;;;;5056069;28;19999;-75
2022/10/22 08:06:40;;;;;;;;;;;16.00;99.90;;;;;;5056567;28;19911;-73
2022/10/22 08:09:05;;;;;;;;;;;16.00;99.90;;;;;;5056244;28;19988;-74
2022/10/22 08:11:32;;;;;;;;;;;16.00;99.90;;;;;;5056008;28;20354;-74
2022/10/22 08:13:58;;;;;;;;;;;16.10;99.90;;;;;;5056595;28;19951;-74
2022/10/22 08:16:24;;;;;;;;;;;16.10;99.90;;;;;;5056089;28;20276;-73
2022/10/22 08:18:49;;;;;;;;;;;16.10;99.90;;;;;;5056640;28;19909;-73
2022/10/22 08:21:16;;;;;;;;;;;16.10;99.90;;;;;;5055969;28;19959;-78
2022/10/22 08:23:42;;;;;;;;;;;16.10;99.90;;;;;;5055921;28;20368;-80
2022/10/22 08:26:07;;;;;;;;;;;16.10;99.90;;;;;;5038583;28;19904;-78
2022/10/22 08:28:35;;;;;;;;;;;16.10;99.90;;;;;;5056153;28;19968;-74
2022/10/22 08:31:07;;;;;;;;;;;16.20;99.90;;;;;;5037934;28;20288;-74
2022/10/22 08:33:33;;;;;;;;;;;16.40;99.90;;;;;;5055707;28;19912;-80
2022/10/22 08:35:59;;;;;;;;;;;16.40;99.90;;;;;;5055490;28;19913;-80
2022/10/22 08:38:24;;;;;;;;;;;16.50;99.90;;;;;;5055433;28;19936;-80
2022/10/22 08:40:55;;;;;;;;;;;16.50;99.90;;;;;;5037555;28;20024;-80
2022/10/22 08:43:21;;;;;;;;;;;16.40;99.90;;;;;;5055470;28;20452;-80
2022/10/22 08:45:58;;;;;;;;;;;16.50;99.90;;;;;;5055969;28;19948;-74
2022/10/22 08:48:45;;;;;;;;;;;16.50;99.90;;;;;;5055421;28;20361;-78
2022/10/22 08:51:12;;;;;;;;;;;16.60;99.90;;;;;;5037588;28;19905;-80
2022/10/22 08:53:48;;;;;;;;;;;16.70;99.90;;;;;;5055704;28;19992;-78
2022/10/22 08:56:14;;;;;;;;;;;16.90;99.90;;;;;;5055694;28;19904;-78
2022/10/22 08:58:54;;;;;;;;;;;17.00;99.90;;;;;;5055547;28;19909;-76
2022/10/22 09:01:32;;;;;;;;;;;17.10;99.90;;;;;;5055227;28;19911;-79
2022/10/22 09:04:12;;;;;;;;;;;17.10;99.90;;;;;;5055835;28;19912;-77
2022/10/22 09:06:39;;;;;;;;;;;17.10;99.90;;;;;;5055016;28;19995;-77
2022/10/22 09:09:09;;;;;;;;;;;17.00;99.90;;;;;;5037036;28;19905;-76
2022/10/22 09:11:36;;;;;;;;;;;16.90;99.90;;;;;;5055698;28;19911;-78
2022/10/22 09:14:02;;;;;;;;;;;16.90;99.90;;;;;;5055731;28;19909;-79
2022/10/22 09:16:30;;;;;;;;;;;16.90;99.90;;;;;;5054112;28;20452;-78
2022/10/22 09:18:56;;;;;;;;;;;16.90;99.90;;;;;;5054734;28;19908;-76
2022/10/22 09:21:40;;;;;;;;;;;16.90;99.90;;;;;;5055072;28;19955;-77
2022/10/22 09:24:28;;;;;;;;;;;16.90;99.90;;;;;;5055204;28;19966;-77
2022/10/22 09:26:55;;;;;;;;;;;17.00;99.90;;;;;;5055010;28;19904;-78
2022/10/22 09:29:23;;;;;;;;;;;17.10;99.90;;;;;;5054740;28;19904;-78
2022/10/22 09:31:48;;;;;;;;;;;17.20;99.90;;;;;;5054729;28;19905;-74
2022/10/22 09:34:18;;;;;;;;;;;17.20;99.90;;;;;;5054588;28;19915;-78
2022/10/22 09:36:43;;;;;;;;;;;17.30;99.90;;;;;;5054119;28;19917;-78
2022/10/22 09:39:38;;;;;;;;;;;17.40;99.90;;;;;;5036631;28;19919;-76
2022/10/22 09:42:04;;;;;;;;;;;17.40;99.90;;;;;;5032841;28;19958;-76
2022/10/22 09:44:34;;;;;;;;;;;17.40;99.90;;;;;;5054811;28;19912;-76
2022/10/22 09:47:07;;;;;;;;;;;17.40;99.90;;;;;;5054296;28;19904;-76
2022/10/22 09:49:34;;;;;;;;;;;17.60;99.90;;;;;;5054640;28;20268;-82
2022/10/22 09:52:00;;;;;;;;;;;17.60;99.90;;;;;;5036430;28;19962;-83
2022/10/22 09:54:37;;;;;;;;;;;17.70;99.90;;;;;;5036410;28;19908;-82
2022/10/22 09:57:04;;;;;;;;;;;17.70;99.90;;;;;;5036600;28;19965;-77
2022/10/22 09:59:31;;;;;;;;;;;17.80;99.90;;;;;;5055105;28;19972;-76
2022/10/22 10:01:57;;;;;;;;;;;18.00;99.90;;;;;;5036396;28;20307;-77
2022/10/22 10:04:23;;;;;;;;;;;18.10;99.90;;;;;;5053969;28;19987;-78
2022/10/22 10:06:52;;;;;;;;;;;18.20;99.90;;;;;;5054151;28;20390;-77
2022/10/22 10:09:19;;;;;;;;;;;18.20;99.90;;;;;;5051250;28;19913;-75
2022/10/22 10:11:45;;;;;;;;;;;18.10;99.90;;;;;;5016543;28;20361;-76
2022/10/22 10:14:18;;;;;;;;;;;18.10;99.90;;;;;;5032708;28;19963;-74
2022/10/22 10:16:51;;;;;;;;;;;18.10;99.90;;;;;;5034089;28;20377;-75
2022/10/22 10:19:17;;;;;;;;;;;18.20;99.90;;;;;;5034490;28;19915;-76
2022/10/22 10:21:53;;;;;;;;;;;18.20;99.90;;;;;;5032846;28;19904;-75
2022/10/22 10:24:25;;;;;;;;;;;18.30;99.90;;;;;;5034961;28;19969;-76
2022/10/22 10:26:57;;;;;;;;;;;18.30;99.90;;;;;;5033859;28;19932;-75
2022/10/22 10:29:22;;;;;;;;;;;18.30;99.90;;;;;;5034363;28;19905;-76
2022/10/22 10:31:59;;;;;;;;;;;18.30;99.90;;;;;;5033792;28;19912;-76
2022/10/22 10:34:41;;;;;;;;;;;18.20;99.90;;;;;;5016045;28;19949;-75
2022/10/22 10:37:25;;;;;;;;;;;18.30;99.90;;;;;;5033410;28;19920;-75
2022/10/22 10:40:02;;;;;;;;;;;18.30;99.90;;;;;;5033623;28;20408;-76
2022/10/22 10:42:54;;;;;;;;;;;18.30;99.90;;;;;;5033946;28;19905;-75
2022/10/22 10:45:19;;;;;;;;;;;18.30;99.90;;;;;;5029642;28;19948;-75
2022/10/22 10:47:48;;;;;;;;;;;18.40;99.90;;;;;;5015893;28;20384;-75
2022/10/22 10:50:16;;;;;;;;;;;18.50;99.90;;;;;;5033855;28;19911;-76
2022/10/22 10:53:08;;;;;;;;;;;18.60;99.90;;;;;;5033864;28;19947;-76
2022/10/22 10:55:57;;;;;;;;;;;18.60;99.90;;;;;;5003015;28;19932;-75
2022/10/22 10:58:41;;;;;;;;;;;18.70;99.90;;;;;;5022957;28;19905;-76
2022/10/22 11:01:09;;;;;;;;;;;18.70;99.90;;;;;;5015770;28;19905;-75
2022/10/22 11:03:35;;;;;;;;;;;18.70;99.90;;;;;;5033758;28;19912;-75
2022/10/22 11:06:01;;;;;;;;;;;18.70;99.90;;;;;;5033483;28;19905;-75
2022/10/22 11:08:31;;;;;;;;;;;18.80;99.90;;;;;;5033394;28;20285;-76
2022/10/22 11:11:05;;;;;;;;;;;18.80;99.90;;;;;;5033483;28;19992;-75
2022/10/22 11:13:32;;;;;;;;;;;18.80;99.90;;;;;;5033345;28;20396;-75
2022/10/22 11:16:00;;;;;;;;;;;18.80;99.90;;;;;;5033445;28;20386;-75
2022/10/22 11:18:29;;;;;;;;;;;18.90;99.90;;;;;;5033562;28;19912;-75
2022/10/22 11:21:20;;;;;;;;;;;18.90;99.90;;;;;;5033288;28;19905;-75
2022/10/22 11:23:54;;;;;;;;;;;18.90;99.90;;;;;;5002634;28;20418;-76
2022/10/22 11:26:40;;;;;;;;;;;19.00;99.90;;;;;;5033774;28;19905;-75
2022/10/22 11:29:09;;;;;;;;;;;19.10;99.90;;;;;;5032645;28;19905;-75
2022/10/22 11:31:35;;;;;;;;;;;19.20;99.90;;;;;;5033790;28;19998;-75
2022/10/22 11:34:03;;;;;;;;;;;19.30;99.90;;;;;;5033121;28;20332;-75
2022/10/22 11:36:29;;;;;;;;;;;19.30;99.90;;;;;;5033052;28;19913;-75
2022/10/22 11:38:55;;;;;;;;;;;19.30;99.90;;;;;;5033372;28;19913;-75
2022/10/22 11:41:25;;;;;;;;;;;19.30;99.90;;;;;;5037178;28;19932;-75
2022/10/22 11:43:53;;;;;;;;;;;19.20;99.90;;;;;;5036865;28;19963;-75
2022/10/22 11:46:19;;;;;;;;;;;19.20;99.90;;;;;;5037084;28;19905;-75
2022/10/22 11:48:59;;;;;;;;;;;19.20;99.90;;;;;;5037041;28;19905;-76
2022/10/22 11:51:35;;;;;;;;;;;19.30;99.90;;;;;;5037283;28;19996;-76
2022/10/22 11:54:02;;;;;;;;;;;19.40;99.90;;;;;;5036653;28;20292;-75
2022/10/22 11:56:36;;;;;;;;;;;19.50;99.90;;;;;;5036931;28;20384;-75
2022/10/22 11:59:02;;;;;;;;;;;19.50;99.90;;;;;;5036818;28;19913;-75
2022/10/22 12:01:48;;;;;;;;;;;19.50;99.90;;;;;;5036553;28;19992;-76
2022/10/22 12:04:15;;;;;;;;;;;19.50;99.90;;;;;;5035914;28;19905;-75
2022/10/22 12:07:06;;;;;;;;;;;19.50;99.90;;;;;;5036753;28;20373;-75
2022/10/22 12:09:33;;;;;;;;;;;19.50;99.90;;;;;;5032308;28;19905;-76
2022/10/22 12:12:14;;;;;;;;;;;19.50;99.90;;;;;;5036377;28;20331;-76
2022/10/22 12:14:50;;;;;;;;;;;19.50;99.90;;;;;;5036258;28;19905;-75
2022/10/22 12:17:16;;;;;;;;;;;19.50;99.90;;;;;;5036506;28;19912;-75
2022/10/22 12:20:08;;;;;;;;;;;19.50;99.90;;;;;;5036060;28;20372;-76
2022/10/22 12:22:37;;;;;;;;;;;19.60;99.90;;;;;;5032307;28;19912;-75
2022/10/22 12:25:14;;;;;;;;;;;19.70;99.90;;;;;;5036828;28;19954;-76
2022/10/22 12:27:40;;;;;;;;;;;19.60;99.90;;;;;;5036097;28;19927;-75
2022/10/22 12:30:17;;;;;;;;;;;19.60;99.90;;;;;;5036259;28;20357;-75
2022/10/22 12:32:43;;;;;;;;;;;19.70;99.90;;;;;;5035782;28;19909;-75
2022/10/22 12:35:17;;;;;;;;;;;19.60;99.90;;;;;;5035705;28;20415;-76
2022/10/22 12:37:42;;;;;;;;;;;19.60;99.90;;;;;;5036432;28;19909;-76
2022/10/22 12:40:18;;;;;;;;;;;19.60;99.90;;;;;;5035742;28;19920;-76
2022/10/22 12:42:51;;;;;;;;;;;19.60;99.90;;;;;;5035756;28;19932;-76
2022/10/22 12:45:18;;;;;;;;;;;19.60;99.90;;;;;;5036293;28;19909;-76
2022/10/22 12:47:47;;;;;;;;;;;19.60;99.90;;;;;;5035974;28;19995;-75
2022/10/22 12:50:17;;;;;;;;;;;19.60;99.90;;;;;;5035220;28;20017;-76
2022/10/22 12:52:42;;;;;;;;;;;19.70;99.90;;;;;;5034794;28;19944;-75
2022/10/22 12:55:13;;;;;;;;;;;19.70;99.90;;;;;;5035840;28;20424;-75
2022/10/22 12:57:38;;;;;;;;;;;19.70;99.90;;;;;;5035775;28;20012;-75
2022/10/22 13:00:18;;;;;;;;;;;19.70;99.90;;;;;;5035640;28;20012;-75
2022/10/22 13:02:44;;;;;;;;;;;19.70;99.90;;;;;;5035365;28;20392;-76
2022/10/22 13:05:12;;;;;;;;;;;19.70;99.90;;;;;;5035409;28;19905;-75
2022/10/22 13:07:40;;;;;;;;;;;19.70;99.90;;;;;;5035316;28;19905;-75
2022/10/22 13:10:18;;;;;;;;;;;19.70;99.90;;;;;;5035529;28;20356;-75
2022/10/22 13:12:47;;;;;;;;;;;19.70;99.90;;;;;;5035212;28;19912;-75
2022/10/22 13:15:20;;;;;;;;;;;19.70;99.90;;;;;;5035022;28;20276;-76
2022/10/22 13:17:46;;;;;;;;;;;19.60;99.90;;;;;;5035191;28;19944;-75
2022/10/22 13:20:19;;;;;;;;;;;19.60;99.90;;;;;;5035281;28;19952;-75
2022/10/22 13:22:59;;;;;;;;;;;19.60;99.90;;;;;;5034875;28;19909;-76
2022/10/22 13:25:25;;;;;;;;;;;19.70;99.90;;;;;;5035432;28;19905;-75
2022/10/22 13:27:55;;;;;;;;;;;19.70;99.90;;;;;;5034919;28;20361;-76
2022/10/22 13:30:23;;;;;;;;;;;19.80;99.90;;;;;;5034834;28;19905;-76
2022/10/22 13:32:53;;;;;;;;;;;19.90;99.90;;;;;;5035031;28;19905;-76
2022/10/22 13:35:20;;;;;;;;;;;20.10;99.90;;;;;;5034561;28;19952;-75
2022/10/22 13:37:45;;;;;;;;;;;20.10;99.90;;;;;;5035067;28;19905;-76
2022/10/22 13:40:12;;;;;;;;;;;20.30;99.90;;;;;;5034564;28;19917;-76
2022/10/22 13:42:38;;;;;;;;;;;20.30;99.90;;;;;;5034880;28;19953;-75
2022/10/22 13:45:04;;;;;;;;;;;20.30;99.90;;;;;;5034553;28;20325;-75
2022/10/22 13:47:30;;;;;;;;;;;20.30;99.90;;;;;;5034497;28;19909;-76
2022/10/22 13:49:58;;;;;;;;;;;20.20;99.90;;;;;;5034648;28;20039;-75
2022/10/22 13:52:28;;;;;;;;;;;20.10;99.90;;;;;;5034403;28;19905;-76
2022/10/22 13:54:54;;;;;;;;;;;20.10;99.90;;;;;;5034694;28;19905;-75
2022/10/22 13:57:19;;;;;;;;;;;20.10;99.90;;;;;;5034218;28;20257;-75
2022/10/22 13:59:45;;;;;;;;;;;20.10;99.90;;;;;;5034526;28;19916;-75
2022/10/22 14:02:11;;;;;;;;;;;20.10;99.90;;;;;;5033966;28;19913;-76
2022/10/22 14:04:37;;;;;;;;;;;20.20;99.90;;;;;;5034686;28;20428;-75
2022/10/22 14:07:06;;;;;;;;;;;20.20;99.90;;;;;;5034219;28;19905;-75
2022/10/22 14:09:32;;;;;;;;;;;20.20;99.90;;;;;;5034401;28;19912;-75
2022/10/22 14:11:57;;;;;;;;;;;20.20;99.90;;;;;;5034033;28;19905;-75
2022/10/22 14:14:23;;;;;;;;;;;20.10;99.90;;;;;;5034378;28;19905;-75
2022/10/22 14:16:49;;;;;;;;;;;20.10;99.90;;;;;;5034024;28;19928;-76
2022/10/22 14:19:16;;;;;;;;;;;20.00;99.90;;;;;;5034148;28;19920;-76
2022/10/22 14:21:41;;;;;;;;;;;19.90;99.90;;;;;;5034065;28;19935;-75
2022/10/22 14:24:08;;;;;;;;;;;19.90;99.90;;;;;;5034495;28;19995;-76